sensor_id;sensor_type;location;lat;lon;timestamp;pressure;altitude;pressure_sealevel;temperature;humidity
54936;BME280;40838;50.676;7.838;2023-12-20T00:00:35;98146.19;;;10.84;100.00
54936;BME280;40838;50.676;7.838;2023-12-20T00:03:03;98145.78;;;11.91;100.00
54936;BME280;40838;50.676;7.838;2023-12-20T00:05:31;98148.66;;;11.01;100.00
54936;BME280;40838;50.676;7.838;2023-12-20T00:07:59;98141.78;;;11.73;100.00
54936;BME280;40838;50.676;7.838;2023-12-20T00:10:26;98137.56;;;11.82;99.52
54936;BME280;40838;50.676;7.838;2023-12-20T00:12:55;98145.53;;;12.02;99.26
54936;BME280;40838;50.676;7.838;2023-12-20T00:15:22;98136.78;;;12.43;96.01
54936;BME280;40838;50.676;7.838;2023-12-20T00:17:49;98134.66;;;12.35;96.15
54936;BME280;40838;50.676;7.838;2023-12-20T00:20:17;98129.63;;;12.23;96.75
54936;BME280;40838;50.676;7.838;2023-12-20T00:22:44;98124.56;;;12.32;95.68
54936;BME280;40838;50.676;7.838;2023-12-20T00:25:12;98124.25;;;11.61;99.88
54936;BME280;40838;50.676;7.838;2023-12-20T00:27:40;98129.56;;;11.61;100.00
54936;BME280;40838;50.676;7.838;2023-12-20T00:30:10;98122.63;;;11.50;100.00
54936;BME280;40838;50.676;7.838;2023-12-20T00:32:38;98125.31;;;10.92;100.00
54936;BME280;40838;50.676;7.838;2023-12-20T00:35:07;98118.72;;;10.47;100.00
54936;BME280;40838;50.676;7.838;2023-12-20T00:37:36;98124.69;;;10.75;100.00
54936;BME280;40838;50.676;7.838;2023-12-20T00:40:05;98124.56;;;11.75;100.00
54936;BME280;40838;50.676;7.838;2023-12-20T00:42:32;98125.31;;;10.87;100.00
54936;BME280;40838;50.676;7.838;2023-12-20T00:45:00;98132.31;;;11.14;100.00
54936;BME280;40838;50.676;7.838;2023-12-20T00:47:29;98124.00;;;10.47;100.00
54936;BME280;40838;50.676;7.838;2023-12-20T00:49:57;98119.78;;;10.46;100.00
54936;BME280;40838;50.676;7.838;2023-12-20T00:52:24;98115.97;;;10.80;100.00
54936;BME280;40838;50.676;7.838;2023-12-20T00:54:51;98121.84;;;11.60;100.00
54936;BME280;40838;50.676;7.838;2023-12-20T00:57:18;98122.09;;;11.48;100.00
54936;BME280;40838;50.676;7.838;2023-12-20T00:59:45;98114.91;;;11.33;100.00
54936;BME280;40838;50.676;7.838;2023-12-20T01:02:12;98108.69;;;11.07;100.00
54936;BME280;40838;50.676;7.838;2023-12-20T01:04:41;98112.16;;;10.55;100.00
54936;BME280;40838;50.676;7.838;2023-12-20T01:07:08;98112.41;;;11.06;100.00
54936;BME280;40838;50.676;7.838;2023-12-20T01:09:36;98118.47;;;11.07;100.00
54936;BME280;40838;50.676;7.838;2023-12-20T01:12:03;98131.41;;;10.13;100.00
54936;BME280;40838;50.676;7.838;2023-12-20T01:14:30;98118.50;;;10.59;100.00
54936;BME280;40838;50.676;7.838;2023-12-20T01:16:59;98112.66;;;11.05;100.00
54936;BME280;40838;50.676;7.838;2023-12-20T01:19:26;98112.63;;;11.00;100.00
54936;BME280;40838;50.676;7.838;2023-12-20T01:21:56;98107.28;;;10.89;100.00
54936;BME280;40838;50.676;7.838;2023-12-20T01:24:24;98114.19;;;11.64;100.00
54936;BME280;40838;50.676;7.838;2023-12-20T01:26:51;98106.19;;;10.80;100.00
54936;BME280;40838;50.676;7.838;2023-12-20T01:29:18;98111.50;;;10.85;100.00
54936;BME280;40838;50.676;7.838;2023-12-20T01:31:45;98110.75;;;10.90;100.00
54936;BME280;40838;50.676;7.838;2023-12-20T01:34:14;98105.44;;;11.58;100.00
54936;BME280;40838;50.676;7.838;2023-12-20T01:36:41;98108.78;;;10.70;100.00
54936;BME280;40838;50.676;7.838;2023-12-20T01:39:09;98105.44;;;11.58;100.00
54936;BME280;40838;50.676;7.838;2023-12-20T01:41:36;98111.53;;;10.96;100.00
54936;BME280;40838;50.676;7.838;2023-12-20T01:44:03;98114.38;;;11.31;100.00
54936;BME280;40838;50.676;7.838;2023-12-20T01:46:31;98103.91;;;11.04;100.00
54936;BME280;40838;50.676;7.838;2023-12-20T01:48:59;98104.81;;;11.30;100.00
54936;BME280;40838;50.676;7.838;2023-12-20T01:51:27;98098.13;;;11.18;100.00
54936;BME280;40838;50.676;7.838;2023-12-20T01:53:56;98115.00;;;11.01;100.00
54936;BME280;40838;50.676;7.838;2023-12-20T01:56:26;98117.22;;;11.20;100.00
54936;BME280;40838;50.676;7.838;2023-12-20T01:58:56;98130.91;;;11.79;100.00
54936;BME280;40838;50.676;7.838;2023-12-20T02:01:24;98136.88;;;10.76;100.00
54936;BME280;40838;50.676;7.838;2023-12-20T02:03:55;98142.88;;;11.09;100.00
54936;BME280;40838;50.676;7.838;2023-12-20T02:06:23;98149.19;;;10.55;100.00
54936;BME280;40838;50.676;7.838;2023-12-20T02:08:50;98143.41;;;11.11;100.00
54936;BME280;40838;50.676;7.838;2023-12-20T02:11:19;98161.50;;;10.39;100.00
54936;BME280;40838;50.676;7.838;2023-12-20T02:13:48;98161.41;;;10.61;100.00
54936;BME280;40838;50.676;7.838;2023-12-20T02:16:15;98163.97;;;10.51;100.00
54936;BME280;40838;50.676;7.838;2023-12-20T02:18:42;98157.06;;;10.87;100.00
54936;BME280;40838;50.676;7.838;2023-12-20T02:21:11;98160.47;;;11.30;100.00
54936;BME280;40838;50.676;7.838;2023-12-20T02:23:40;98159.94;;;10.81;100.00
54936;BME280;40838;50.676;7.838;2023-12-20T02:26:07;98165.34;;;10.96;100.00
54936;BME280;40838;50.676;7.838;2023-12-20T02:28:35;98164.69;;;10.79;100.00
54936;BME280;40838;50.676;7.838;2023-12-20T02:31:03;98153.59;;;11.29;100.00
54936;BME280;40838;50.676;7.838;2023-12-20T02:33:30;98158.13;;;11.34;100.00
54936;BME280;40838;50.676;7.838;2023-12-20T02:35:57;98158.53;;;10.68;100.00
54936;BME280;40838;50.676;7.838;2023-12-20T02:38:24;98158.63;;;10.83;100.00
54936;BME280;40838;50.676;7.838;2023-12-20T02:40:52;98159.53;;;10.99;100.00
54936;BME280;40838;50.676;7.838;2023-12-20T02:43:19;98164.97;;;10.82;100.00
54936;BME280;40838;50.676;7.838;2023-12-20T02:45:46;98165.78;;;10.83;100.00
54936;BME280;40838;50.676;7.838;2023-12-20T02:48:13;98166.34;;;10.47;100.00
54936;BME280;40838;50.676;7.838;2023-12-20T02:50:41;98162.16;;;11.04;100.00
54936;BME280;40838;50.676;7.838;2023-12-20T02:53:08;98161.84;;;11.43;100.00
54936;BME280;40838;50.676;7.838;2023-12-20T02:55:35;98152.94;;;11.75;100.00
54936;BME280;40838;50.676;7.838;2023-12-20T02:58:04;98163.25;;;11.71;100.00
54936;BME280;40838;50.676;7.838;2023-12-20T03:00:32;98170.94;;;11.05;100.00
54936;BME280;40838;50.676;7.838;2023-12-20T03:02:59;98176.44;;;10.93;100.00
54936;BME280;40838;50.676;7.838;2023-12-20T03:05:26;98177.44;;;11.29;100.00
54936;BME280;40838;50.676;7.838;2023-12-20T03:07:53;98183.03;;;10.96;100.00
54936;BME280;40838;50.676;7.838;2023-12-20T03:10:21;98187.63;;;10.63;100.00
54936;BME280;40838;50.676;7.838;2023-12-20T03:12:49;98181.25;;;11.06;100.00
54936;BME280;40838;50.676;7.838;2023-12-20T03:15:18;98175.72;;;10.65;100.00
54936;BME280;40838;50.676;7.838;2023-12-20T03:17:45;98189.06;;;10.81;100.00
54936;BME280;40838;50.676;7.838;2023-12-20T03:20:12;98188.34;;;10.21;100.00
54936;BME280;40838;50.676;7.838;2023-12-20T03:22:39;98194.47;;;10.59;100.00
54936;BME280;40838;50.676;7.838;2023-12-20T03:25:08;98193.47;;;10.33;100.00
54936;BME280;40838;50.676;7.838;2023-12-20T03:27:37;98196.50;;;9.65;100.00
54936;BME280;40838;50.676;7.838;2023-12-20T03:30:05;98212.97;;;9.72;100.00
54936;BME280;40838;50.676;7.838;2023-12-20T03:32:36;98210.56;;;9.93;100.00
54936;BME280;40838;50.676;7.838;2023-12-20T03:35:04;98215.56;;;9.67;100.00
54936;BME280;40838;50.676;7.838;2023-12-20T03:37:31;98211.44;;;9.54;100.00
54936;BME280;40838;50.676;7.838;2023-12-20T03:39:57;98214.13;;;9.38;100.00
54936;BME280;40838;50.676;7.838;2023-12-20T03:42:24;98214.69;;;9.18;100.00
54936;BME280;40838;50.676;7.838;2023-12-20T03:44:52;98222.03;;;9.32;100.00
54936;BME280;40838;50.676;7.838;2023-12-20T03:47:19;98225.81;;;9.42;100.00
54936;BME280;40838;50.676;7.838;2023-12-20T03:49:49;98229.28;;;9.03;100.00
54936;BME280;40838;50.676;7.838;2023-12-20T03:52:16;98228.81;;;9.06;100.00
54936;BME280;40838;50.676;7.838;2023-12-20T03:54:43;98226.25;;;9.11;100.00
54936;BME280;40838;50.676;7.838;2023-12-20T03:57:11;98228.88;;;9.33;100.00
54936;BME280;40838;50.676;7.838;2023-12-20T03:59:40;98210.16;;;8.96;100.00
54936;BME280;40838;50.676;7.838;2023-12-20T04:02:07;98211.00;;;9.63;100.00
54936;BME280;40838;50.676;7.838;2023-12-20T04:04:34;98204.16;;;9.67;100.00
54936;BME280;40838;50.676;7.838;2023-12-20T04:07:03;98212.44;;;9.70;100.00
54936;BME280;40838;50.676;7.838;2023-12-20T04:09:31;98209.31;;;9.78;100.00
54936;BME280;40838;50.676;7.838;2023-12-20T04:11:58;98207.31;;;10.13;100.00
54936;BME280;40838;50.676;7.838;2023-12-20T04:14:27;98204.97;;;10.16;100.00
54936;BME280;40838;50.676;7.838;2023-12-20T04:16:53;98215.72;;;9.61;100.00
54936;BME280;40838;50.676;7.838;2023-12-20T04:19:20;98209.75;;;10.19;100.00
54936;BME280;40838;50.676;7.838;2023-12-20T04:21:48;98213.31;;;10.03;100.00
54936;BME280;40838;50.676;7.838;2023-12-20T04:24:16;98210.38;;;9.99;100.00
54936;BME280;40838;50.676;7.838;2023-12-20T04:26:45;98218.00;;;10.23;100.00
54936;BME280;40838;50.676;7.838;2023-12-20T04:29:13;98214.13;;;10.36;99.34
54936;BME280;40838;50.676;7.838;2023-12-20T04:31:40;98210.16;;;10.33;100.00
54936;BME280;40838;50.676;7.838;2023-12-20T04:34:08;98217.44;;;10.21;100.00
54936;BME280;40838;50.676;7.838;2023-12-20T04:36:35;98224.88;;;10.24;100.00
54936;BME280;40838;50.676;7.838;2023-12-20T04:39:02;98236.63;;;9.40;100.00
54936;BME280;40838;50.676;7.838;2023-12-20T04:41:31;98225.97;;;9.13;100.00
54936;BME280;40838;50.676;7.838;2023-12-20T04:43:58;98225.19;;;9.34;100.00
54936;BME280;40838;50.676;7.838;2023-12-20T04:46:26;98231.56;;;9.55;100.00
54936;BME280;40838;50.676;7.838;2023-12-20T04:48:55;98236.50;;;9.30;100.00
54936;BME280;40838;50.676;7.838;2023-12-20T04:51:23;98233.06;;;9.51;100.00
54936;BME280;40838;50.676;7.838;2023-12-20T04:53:50;98234.13;;;10.21;100.00
54936;BME280;40838;50.676;7.838;2023-12-20T04:56:18;98221.91;;;9.88;100.00
54936;BME280;40838;50.676;7.838;2023-12-20T04:58:47;98227.06;;;9.56;100.00
54936;BME280;40838;50.676;7.838;2023-12-20T05:01:14;98233.19;;;9.40;100.00
54936;BME280;40838;50.676;7.838;2023-12-20T05:03:41;98236.50;;;9.30;100.00
54936;BME280;40838;50.676;7.838;2023-12-20T05:06:09;98235.44;;;9.31;100.00
54936;BME280;40838;50.676;7.838;2023-12-20T05:08:37;98241.66;;;9.64;100.00
54936;BME280;40838;50.676;7.838;2023-12-20T05:11:04;98238.59;;;9.72;100.00
54936;BME280;40838;50.676;7.838;2023-12-20T05:13:32;98241.00;;;9.95;100.00
54936;BME280;40838;50.676;7.838;2023-12-20T05:16:03;98227.47;;;10.19;100.00
54936;BME280;40838;50.676;7.838;2023-12-20T05:18:34;98219.69;;;9.36;100.00
54936;BME280;40838;50.676;7.838;2023-12-20T05:21:01;98216.19;;;9.52;100.00
54936;BME280;40838;50.676;7.838;2023-12-20T05:23:28;98222.78;;;10.26;100.00
54936;BME280;40838;50.676;7.838;2023-12-20T05:25:56;98221.22;;;9.76;100.00
54936;BME280;40838;50.676;7.838;2023-12-20T05:28:24;98208.00;;;10.30;100.00
54936;BME280;40838;50.676;7.838;2023-12-20T05:30:52;98208.34;;;9.85;100.00
54936;BME280;40838;50.676;7.838;2023-12-20T05:33:21;98217.25;;;9.78;100.00
54936;BME280;40838;50.676;7.838;2023-12-20T05:35:48;98220.50;;;9.58;100.00
54936;BME280;40838;50.676;7.838;2023-12-20T05:38:15;98216.88;;;9.70;100.00
54936;BME280;40838;50.676;7.838;2023-12-20T05:40:42;98223.28;;;9.74;100.00
54936;BME280;40838;50.676;7.838;2023-12-20T05:43:09;98214.25;;;9.04;100.00
54936;BME280;40838;50.676;7.838;2023-12-20T05:45:36;98226.25;;;9.33;100.00
54936;BME280;40838;50.676;7.838;2023-12-20T05:48:04;98223.53;;;9.94;100.00
54936;BME280;40838;50.676;7.838;2023-12-20T05:50:34;98229.06;;;9.93;100.00
54936;BME280;40838;50.676;7.838;2023-12-20T05:53:02;98233.06;;;9.95;100.00
54936;BME280;40838;50.676;7.838;2023-12-20T05:55:29;98232.22;;;9.46;100.00
54936;BME280;40838;50.676;7.838;2023-12-20T05:57:56;98230.06;;;9.65;100.00
54936;BME280;40838;50.676;7.838;2023-12-20T06:00:25;98237.19;;;9.86;100.00
54936;BME280;40838;50.676;7.838;2023-12-20T06:02:52;98240.31;;;9.83;100.00
54936;BME280;40838;50.676;7.838;2023-12-20T06:05:20;98241.81;;;9.13;100.00
54936;BME280;40838;50.676;7.838;2023-12-20T06:07:48;98234.69;;;9.52;100.00
54936;BME280;40838;50.676;7.838;2023-12-20T06:10:16;98236.06;;;10.04;100.00
54936;BME280;40838;50.676;7.838;2023-12-20T06:12:43;98244.75;;;9.55;100.00
54936;BME280;40838;50.676;7.838;2023-12-20T06:15:15;98234.91;;;9.95;100.00
54936;BME280;40838;50.676;7.838;2023-12-20T06:17:42;98243.72;;;9.56;100.00
54936;BME280;40838;50.676;7.838;2023-12-20T06:20:10;98237.59;;;9.12;100.00
54936;BME280;40838;50.676;7.838;2023-12-20T06:22:39;98247.78;;;9.03;100.00
54936;BME280;40838;50.676;7.838;2023-12-20T06:25:09;98248.97;;;9.34;100.00
54936;BME280;40838;50.676;7.838;2023-12-20T06:27:36;98249.47;;;9.75;100.00
54936;BME280;40838;50.676;7.838;2023-12-20T06:30:06;98239.50;;;10.05;100.00
54936;BME280;40838;50.676;7.838;2023-12-20T06:32:34;98248.50;;;9.60;100.00
54936;BME280;40838;50.676;7.838;2023-12-20T06:35:01;98250.00;;;9.94;100.00
54936;BME280;40838;50.676;7.838;2023-12-20T06:37:30;98259.00;;;9.76;100.00
54936;BME280;40838;50.676;7.838;2023-12-20T06:39:58;98257.06;;;9.28;100.00
54936;BME280;40838;50.676;7.838;2023-12-20T06:42:27;98250.41;;;9.42;100.00
54936;BME280;40838;50.676;7.838;2023-12-20T06:44:54;98248.72;;;9.58;100.00
54936;BME280;40838;50.676;7.838;2023-12-20T06:47:25;98244.22;;;9.15;100.00
54936;BME280;40838;50.676;7.838;2023-12-20T06:49:53;98247.69;;;9.81;100.00
54936;BME280;40838;50.676;7.838;2023-12-20T06:52:21;98238.91;;;9.53;100.00
54936;BME280;40838;50.676;7.838;2023-12-20T06:54:48;98241.13;;;10.06;100.00
54936;BME280;40838;50.676;7.838;2023-12-20T06:57:15;98232.47;;;9.88;100.00
54936;BME280;40838;50.676;7.838;2023-12-20T06:59:45;98249.44;;;9.92;100.00
54936;BME280;40838;50.676;7.838;2023-12-20T07:02:13;98249.56;;;9.58;100.00
54936;BME280;40838;50.676;7.838;2023-12-20T07:04:41;98256.69;;;9.19;100.00
54936;BME280;40838;50.676;7.838;2023-12-20T07:07:08;98254.00;;;9.58;100.00
54936;BME280;40838;50.676;7.838;2023-12-20T07:09:35;98256.25;;;9.44;100.00
54936;BME280;40838;50.676;7.838;2023-12-20T07:12:03;98247.72;;;9.59;100.00
54936;BME280;40838;50.676;7.838;2023-12-20T07:14:30;98253.53;;;9.00;100.00
54936;BME280;40838;50.676;7.838;2023-12-20T07:16:59;98258.28;;;9.59;100.00
54936;BME280;40838;50.676;7.838;2023-12-20T07:19:26;98261.69;;;9.38;100.00
54936;BME280;40838;50.676;7.838;2023-12-20T07:21:53;98253.97;;;9.53;100.00
54936;BME280;40838;50.676;7.838;2023-12-20T07:24:20;98246.38;;;9.84;100.00
54936;BME280;40838;50.676;7.838;2023-12-20T07:26:47;98258.81;;;9.00;100.00
54936;BME280;40838;50.676;7.838;2023-12-20T07:29:14;98261.47;;;9.22;100.00
54936;BME280;40838;50.676;7.838;2023-12-20T07:31:41;98264.00;;;8.78;100.00
54936;BME280;40838;50.676;7.838;2023-12-20T07:34:09;98265.44;;;9.42;100.00
54936;BME280;40838;50.676;7.838;2023-12-20T07:36:37;98250.03;;;9.55;100.00
54936;BME280;40838;50.676;7.838;2023-12-20T07:39:04;98262.63;;;9.09;100.00
54936;BME280;40838;50.676;7.838;2023-12-20T07:41:31;98264.78;;;9.12;100.00
54936;BME280;40838;50.676;7.838;2023-12-20T07:43:59;98251.38;;;9.58;100.00
54936;BME280;40838;50.676;7.838;2023-12-20T07:46:26;98260.28;;;9.30;100.00
54936;BME280;40838;50.676;7.838;2023-12-20T07:48:53;98265.84;;;8.78;100.00
54936;BME280;40838;50.676;7.838;2023-12-20T07:51:24;98271.16;;;9.33;100.00
54936;BME280;40838;50.676;7.838;2023-12-20T07:53:52;98273.59;;;9.79;100.00
54936;BME280;40838;50.676;7.838;2023-12-20T07:56:19;98274.88;;;8.99;100.00
54936;BME280;40838;50.676;7.838;2023-12-20T07:58:48;98269.44;;;9.05;100.00
54936;BME280;40838;50.676;7.838;2023-12-20T08:01:16;98273.59;;;9.01;100.00
54936;BME280;40838;50.676;7.838;2023-12-20T08:03:43;98276.69;;;9.54;100.00
54936;BME280;40838;50.676;7.838;2023-12-20T08:06:10;98276.81;;;8.70;100.00
54936;BME280;40838;50.676;7.838;2023-12-20T08:08:39;98286.63;;;8.57;100.00
54936;BME280;40838;50.676;7.838;2023-12-20T08:11:06;98284.44;;;9.39;100.00
54936;BME280;40838;50.676;7.838;2023-12-20T08:13:33;98288.47;;;9.46;100.00
54936;BME280;40838;50.676;7.838;2023-12-20T08:16:00;98302.41;;;9.03;100.00
54936;BME280;40838;50.676;7.838;2023-12-20T08:18:28;98304.22;;;9.58;100.00
54936;BME280;40838;50.676;7.838;2023-12-20T08:20:57;98302.13;;;9.38;100.00
54936;BME280;40838;50.676;7.838;2023-12-20T08:23:24;98301.75;;;9.12;100.00
54936;BME280;40838;50.676;7.838;2023-12-20T08:25:52;98293.47;;;9.43;100.00
54936;BME280;40838;50.676;7.838;2023-12-20T08:28:20;98302.53;;;9.30;100.00
54936;BME280;40838;50.676;7.838;2023-12-20T08:30:48;98300.91;;;9.29;100.00
54936;BME280;40838;50.676;7.838;2023-12-20T08:33:19;98298.91;;;9.53;100.00
54936;BME280;40838;50.676;7.838;2023-12-20T08:35:46;98300.09;;;9.45;100.00
54936;BME280;40838;50.676;7.838;2023-12-20T08:38:13;98293.34;;;9.16;100.00
54936;BME280;40838;50.676;7.838;2023-12-20T08:40:40;98290.72;;;9.54;100.00
54936;BME280;40838;50.676;7.838;2023-12-20T08:43:09;98292.78;;;9.91;100.00
54936;BME280;40838;50.676;7.838;2023-12-20T08:45:36;98299.06;;;9.85;99.69
54936;BME280;40838;50.676;7.838;2023-12-20T08:48:03;98294.25;;;9.04;100.00
54936;BME280;40838;50.676;7.838;2023-12-20T08:50:30;98295.28;;;9.03;100.00
54936;BME280;40838;50.676;7.838;2023-12-20T08:52:57;98286.59;;;9.64;100.00
54936;BME280;40838;50.676;7.838;2023-12-20T08:55:24;98288.94;;;9.21;100.00
54936;BME280;40838;50.676;7.838;2023-12-20T08:57:52;98283.53;;;9.72;100.00
54936;BME280;40838;50.676;7.838;2023-12-20T09:00:21;98279.78;;;9.29;100.00
54936;BME280;40838;50.676;7.838;2023-12-20T09:02:49;98281.38;;;9.69;100.00
54936;BME280;40838;50.676;7.838;2023-12-20T09:05:16;98282.97;;;9.70;100.00
54936;BME280;40838;50.676;7.838;2023-12-20T09:07:46;98276.63;;;9.27;100.00
54936;BME280;40838;50.676;7.838;2023-12-20T09:10:14;98280.31;;;9.48;100.00
54936;BME280;40838;50.676;7.838;2023-12-20T09:12:41;98280.03;;;9.66;99.09
54936;BME280;40838;50.676;7.838;2023-12-20T09:15:09;98278.03;;;9.78;99.44
54936;BME280;40838;50.676;7.838;2023-12-20T09:17:37;98270.84;;;9.30;100.00
54936;BME280;40838;50.676;7.838;2023-12-20T09:20:06;98276.25;;;9.84;99.22
54936;BME280;40838;50.676;7.838;2023-12-20T09:22:34;98285.31;;;10.10;97.11
54936;BME280;40838;50.676;7.838;2023-12-20T09:25:01;98274.44;;;9.63;99.12
54936;BME280;40838;50.676;7.838;2023-12-20T09:27:28;98279.56;;;9.91;97.27
54936;BME280;40838;50.676;7.838;2023-12-20T09:29:55;98279.63;;;9.96;97.03
54936;BME280;40838;50.676;7.838;2023-12-20T09:32:22;98279.59;;;9.13;100.00
54936;BME280;40838;50.676;7.838;2023-12-20T09:34:50;98276.38;;;9.89;98.02
54936;BME280;40838;50.676;7.838;2023-12-20T09:37:17;98277.03;;;9.41;99.11
54936;BME280;40838;50.676;7.838;2023-12-20T09:39:44;98291.72;;;9.70;99.31
54936;BME280;40838;50.676;7.838;2023-12-20T09:42:17;98273.88;;;9.83;98.33
54936;BME280;40838;50.676;7.838;2023-12-20T09:44:49;98287.34;;;9.81;98.03
54936;BME280;40838;50.676;7.838;2023-12-20T09:47:19;98286.31;;;9.43;99.72
54936;BME280;40838;50.676;7.838;2023-12-20T09:49:46;98280.59;;;9.90;96.78
54936;BME280;40838;50.676;7.838;2023-12-20T09:52:15;98291.94;;;9.47;97.83
54936;BME280;40838;50.676;7.838;2023-12-20T09:54:45;98291.75;;;10.74;92.18
54936;BME280;40838;50.676;7.838;2023-12-20T09:57:15;98282.94;;;10.09;94.26
54936;BME280;40838;50.676;7.838;2023-12-20T09:59:42;98276.63;;;10.42;92.97
54936;BME280;40838;50.676;7.838;2023-12-20T10:02:13;98277.50;;;9.98;96.11
54936;BME280;40838;50.676;7.838;2023-12-20T10:04:46;98269.69;;;10.36;92.95
54936;BME280;40838;50.676;7.838;2023-12-20T10:07:16;98264.41;;;10.36;93.65
54936;BME280;40838;50.676;7.838;2023-12-20T10:09:44;98265.81;;;10.16;93.67
54936;BME280;40838;50.676;7.838;2023-12-20T10:12:12;98271.97;;;9.78;95.87
54936;BME280;40838;50.676;7.838;2023-12-20T10:14:39;98266.63;;;9.95;94.97
54936;BME280;40838;50.676;7.838;2023-12-20T10:17:08;98259.38;;;10.07;93.19
54936;BME280;40838;50.676;7.838;2023-12-20T10:19:37;98256.91;;;9.56;95.69
54936;BME280;40838;50.676;7.838;2023-12-20T10:22:04;98252.53;;;10.38;93.12
54936;BME280;40838;50.676;7.838;2023-12-20T10:24:34;98246.59;;;10.90;89.46
54936;BME280;40838;50.676;7.838;2023-12-20T10:27:02;98251.41;;;10.34;91.07
54936;BME280;40838;50.676;7.838;2023-12-20T10:29:35;98258.72;;;10.22;93.08
54936;BME280;40838;50.676;7.838;2023-12-20T10:32:24;98257.06;;;10.43;92.42
54936;BME280;40838;50.676;7.838;2023-12-20T10:34:52;98255.47;;;10.15;92.27
54936;BME280;40838;50.676;7.838;2023-12-20T10:37:21;98255.00;;;9.96;93.02
54936;BME280;40838;50.676;7.838;2023-12-20T10:39:52;98255.34;;;9.99;93.44
54936;BME280;40838;50.676;7.838;2023-12-20T10:42:22;98249.78;;;9.79;95.02
54936;BME280;40838;50.676;7.838;2023-12-20T10:44:51;98242.34;;;9.98;92.25
54936;BME280;40838;50.676;7.838;2023-12-20T10:47:20;98257.03;;;9.67;93.36
54936;BME280;40838;50.676;7.838;2023-12-20T10:49:46;98254.72;;;9.92;93.21
54936;BME280;40838;50.676;7.838;2023-12-20T10:52:14;98253.06;;;10.13;92.82
54936;BME280;40838;50.676;7.838;2023-12-20T10:54:40;98245.44;;;10.44;91.71
54936;BME280;40838;50.676;7.838;2023-12-20T10:57:10;98245.44;;;9.90;94.35
54936;BME280;40838;50.676;7.838;2023-12-20T10:59:38;98243.00;;;10.37;92.00
54936;BME280;40838;50.676;7.838;2023-12-20T11:02:07;98241.66;;;10.08;92.90
54936;BME280;40838;50.676;7.838;2023-12-20T11:04:40;98242.63;;;10.56;91.39
54936;BME280;40838;50.676;7.838;2023-12-20T11:07:19;98249.28;;;9.82;95.11
54936;BME280;40838;50.676;7.838;2023-12-20T11:10:03;98250.31;;;9.81;95.67
54936;BME280;40838;50.676;7.838;2023-12-20T11:12:39;98248.72;;;9.58;97.68
54936;BME280;40838;50.676;7.838;2023-12-20T11:15:10;98231.78;;;9.98;95.44
54936;BME280;40838;50.676;7.838;2023-12-20T11:17:40;98235.16;;;9.93;96.74
54936;BME280;40838;50.676;7.838;2023-12-20T11:20:09;98228.09;;;10.26;94.56
54936;BME280;40838;50.676;7.838;2023-12-20T11:22:37;98225.97;;;10.28;93.81
54936;BME280;40838;50.676;7.838;2023-12-20T11:25:08;98228.84;;;9.94;96.08
54936;BME280;40838;50.676;7.838;2023-12-20T11:27:37;98215.97;;;10.67;93.39
54936;BME280;40838;50.676;7.838;2023-12-20T11:30:08;98214.06;;;10.58;94.41
54936;BME280;40838;50.676;7.838;2023-12-20T11:32:36;98218.56;;;9.54;98.14
54936;BME280;40838;50.676;7.838;2023-12-20T11:35:18;98215.25;;;10.77;92.85
54936;BME280;40838;50.676;7.838;2023-12-20T11:37:45;98211.72;;;10.61;94.80
54936;BME280;40838;50.676;7.838;2023-12-20T11:40:18;98201.78;;;10.14;94.11
54936;BME280;40838;50.676;7.838;2023-12-20T11:42:50;98213.38;;;9.20;100.00
54936;BME280;40838;50.676;7.838;2023-12-20T11:45:23;98221.09;;;9.88;98.50
54936;BME280;40838;50.676;7.838;2023-12-20T11:47:51;98220.03;;;9.67;98.95
54936;BME280;40838;50.676;7.838;2023-12-20T11:50:20;98211.25;;;9.61;98.53
54936;BME280;40838;50.676;7.838;2023-12-20T11:52:47;98223.72;;;9.66;99.30
54936;BME280;40838;50.676;7.838;2023-12-20T11:55:15;98222.53;;;10.00;97.09
54936;BME280;40838;50.676;7.838;2023-12-20T11:57:43;98214.06;;;10.25;95.30
54936;BME280;40838;50.676;7.838;2023-12-20T12:00:13;98214.69;;;10.75;94.32
54936;BME280;40838;50.676;7.838;2023-12-20T12:02:40;98221.91;;;10.47;94.16
54936;BME280;40838;50.676;7.838;2023-12-20T12:05:08;98214.47;;;10.44;94.57
54936;BME280;40838;50.676;7.838;2023-12-20T12:07:35;98203.63;;;10.46;94.71
54936;BME280;40838;50.676;7.838;2023-12-20T12:10:03;98203.94;;;9.68;98.18
54936;BME280;40838;50.676;7.838;2023-12-20T12:12:32;98190.44;;;10.19;94.78
54936;BME280;40838;50.676;7.838;2023-12-20T12:15:09;98190.16;;;10.47;93.12
54936;BME280;40838;50.676;7.838;2023-12-20T12:17:37;98182.94;;;10.75;92.86
54936;BME280;40838;50.676;7.838;2023-12-20T12:20:06;98185.69;;;10.53;93.04
54936;BME280;40838;50.676;7.838;2023-12-20T12:22:35;98190.81;;;9.78;97.55
54936;BME280;40838;50.676;7.838;2023-12-20T12:25:10;98180.13;;;10.17;96.23
54936;BME280;40838;50.676;7.838;2023-12-20T12:27:36;98189.38;;;9.66;98.16
54936;BME280;40838;50.676;7.838;2023-12-20T12:30:05;98167.81;;;10.33;94.65
54936;BME280;40838;50.676;7.838;2023-12-20T12:32:34;98166.13;;;9.90;96.38
54936;BME280;40838;50.676;7.838;2023-12-20T12:35:05;98161.72;;;10.33;96.02
54936;BME280;40838;50.676;7.838;2023-12-20T12:37:34;98165.09;;;10.55;94.46
54936;BME280;40838;50.676;7.838;2023-12-20T12:40:03;98164.94;;;10.40;94.76
54936;BME280;40838;50.676;7.838;2023-12-20T12:42:31;98167.53;;;10.30;95.61
54936;BME280;40838;50.676;7.838;2023-12-20T12:44:58;98170.06;;;9.65;98.44
54936;BME280;40838;50.676;7.838;2023-12-20T12:47:25;98173.94;;;9.57;99.68
54936;BME280;40838;50.676;7.838;2023-12-20T12:49:52;98153.47;;;10.24;96.74
54936;BME280;40838;50.676;7.838;2023-12-20T12:52:21;98150.19;;;9.85;97.11
54936;BME280;40838;50.676;7.838;2023-12-20T12:54:48;98148.34;;;10.12;95.94
54936;BME280;40838;50.676;7.838;2023-12-20T12:57:15;98156.06;;;9.65;97.56
54936;BME280;40838;50.676;7.838;2023-12-20T12:59:43;98153.47;;;9.21;100.00
54936;BME280;40838;50.676;7.838;2023-12-20T13:02:11;98149.25;;;9.96;98.55